Station Historical Data
Daily Summary for December 15, 2017 Units:  English    Metric   Both
« Previous Day
Next Day »
Daily Weekly Monthly Yearly Custom
  High: Low: Average:
Temperature: 25.4 °F 8.7 °F 19.9 °F
Dew Point: 21.4 °F 4.6 °F 13.8 °F
Humidity: 88% 66% 77%
Wind Speed: 15.0mph 0.0mph 3.7mph
Wind Gust: 23.0mph - -
Wind- - SW
Pressure: 30.07 in 29.79 in -
Precipitation: 0.00 in    
Historical Graphs
 
 
Tabular Data for December 15, 2017
Time Temperature Dew Point Pressure Wind Wind Speed Wind Gust Humidity Rainfall Rate (Hourly)
00:04 12.5 °F 7.8 °F 30.07 in South 1.0 mph 3.0 mph 81% 0.00 in
00:09 11.9 °F 6.9 °F 30.07 in South 1.0 mph 3.0 mph 80% 0.00 in
00:14 10.9 °F 5.9 °F 30.07 in Calm   1.0 mph 80% 0.00 in
00:19 10.5 °F 5.8 °F 30.07 in Calm   2.0 mph 81% 0.00 in
00:24 10.6 °F 6.2 °F 30.07 in Calm     82% 0.00 in
00:29 10.3 °F 5.6 °F 30.07 in Calm     81% 0.00 in
00:34 10.2 °F 5.8 °F 30.07 in Calm     82% 0.00 in
00:39 9.9 °F 5.5 °F 30.07 in Calm     82% 0.00 in
00:44 9.7 °F 5.3 °F 30.07 in Calm     82% 0.00 in
00:49 9.7 °F 5.3 °F 30.07 in Calm     82% 0.00 in
00:54 9.4 °F 5.0 °F 30.07 in Calm     82% 0.00 in
00:59 9.1 °F 4.7 °F 30.07 in Calm     82% 0.00 in
01:04 9.1 °F 5.0 °F 30.07 in Calm     83% 0.00 in
01:09 8.9 °F 4.8 °F 30.06 in Calm     83% 0.00 in
01:14 8.7 °F 4.6 °F 30.07 in Calm     83% 0.00 in
01:19 8.7 °F 4.6 °F 30.07 in Calm     83% 0.00 in
01:29 9.9 °F 6.3 °F 30.07 in WNW 1.0 mph 4.0 mph 85% 0.00 in
01:34 10.4 °F 6.8 °F 30.07 in WNW 1.0 mph 3.0 mph 85% 0.00 in
01:39 10.7 °F 7.1 °F 30.07 in Calm   2.0 mph 85% 0.00 in
01:44 10.9 °F 7.3 °F 30.07 in WNW 1.0 mph 3.0 mph 85% 0.00 in
01:49 11.1 °F 7.2 °F 30.07 in Calm   2.0 mph 84% 0.00 in
01:54 10.6 °F 6.7 °F 30.07 in Calm     84% 0.00 in
01:59 10.5 °F 6.6 °F 30.07 in Calm     84% 0.00 in
02:04 10.1 °F 6.0 °F 30.07 in Calm     83% 0.00 in
02:09 9.8 °F 5.9 °F 30.07 in Calm     84% 0.00 in
02:14 9.5 °F 5.4 °F 30.07 in Calm     83% 0.00 in
02:19 9.2 °F 5.3 °F 30.07 in Calm     84% 0.00 in
02:24 9.2 °F 5.3 °F 30.06 in Calm     84% 0.00 in
02:29 9.4 °F 5.5 °F 30.07 in SW 2.0 mph 2.0 mph 84% 0.00 in
02:34 11.2 °F 7.6 °F 30.06 in South 1.0 mph 3.0 mph 85% 0.00 in
02:39 11.3 °F 7.4 °F 30.07 in Calm   2.0 mph 84% 0.00 in
02:44 10.6 °F 6.5 °F 30.07 in Calm   2.0 mph 83% 0.00 in
02:49 10.3 °F 5.9 °F 30.06 in Calm   2.0 mph 82% 0.00 in
02:54 9.7 °F 5.3 °F 30.07 in Calm     82% 0.00 in
02:59 9.4 °F 5.0 °F 30.07 in Calm     82% 0.00 in
03:04 9.5 °F 5.4 °F 30.07 in Calm     83% 0.00 in
03:09 9.2 °F 4.8 °F 30.07 in Calm     82% 0.00 in
03:14 9.0 °F 4.6 °F 30.07 in Calm     82% 0.00 in
03:19 9.1 °F 5.0 °F 30.06 in Calm     83% 0.00 in
03:24 9.3 °F 5.2 °F 30.06 in Calm     83% 0.00 in
03:29 9.3 °F 5.2 °F 30.06 in Calm     83% 0.00 in
03:34 9.3 °F 5.2 °F 30.05 in Calm     83% 0.00 in
03:39 9.7 °F 5.8 °F 30.05 in Calm     84% 0.00 in
03:44 9.8 °F 5.7 °F 30.05 in Calm     83% 0.00 in
03:49 9.9 °F 5.8 °F 30.05 in Calm     83% 0.00 in
03:54 10.6 °F 6.7 °F 30.05 in Calm     84% 0.00 in
03:59 11.0 °F 7.1 °F 30.04 in Calm     84% 0.00 in
04:04 11.2 °F 7.0 °F 30.05 in Calm     83% 0.00 in
04:09 11.3 °F 7.1 °F 30.04 in Calm     83% 0.00 in
04:14 12.2 °F 8.3 °F 30.04 in South 1.0 mph 4.0 mph 84% 0.00 in
04:19 12.9 °F 8.7 °F 30.04 in South 1.0 mph 4.0 mph 83% 0.00 in
04:24 13.6 °F 9.4 °F 30.04 in SSW 1.0 mph 3.0 mph 83% 0.00 in
04:29 14.1 °F 9.6 °F 30.04 in Calm   3.0 mph 82% 0.00 in
04:34 14.6 °F 9.8 °F 30.03 in Calm     81% 0.00 in
04:39 15.1 °F 10.0 °F 30.03 in Calm     80% 0.00 in
04:44 15.3 °F 10.0 °F 30.03 in Calm     79% 0.00 in
04:49 15.4 °F 10.1 °F 30.03 in Calm     79% 0.00 in
04:54 15.5 °F 9.9 °F 30.03 in Calm     78% 0.00 in
04:59 15.5 °F 9.9 °F 30.02 in Calm     78% 0.00 in
05:04 15.6 °F 10.0 °F 30.02 in Calm     78% 0.00 in
05:09 15.7 °F 10.1 °F 30.02 in Calm     78% 0.00 in
05:14 15.8 °F 9.9 °F 30.02 in Calm     77% 0.00 in
05:19 15.9 °F 10.3 °F 30.02 in Calm     78% 0.00 in
05:24 15.9 °F 10.3 °F 30.02 in Calm     78% 0.00 in
05:29 16.0 °F 10.3 °F 30.02 in Calm     78% 0.00 in
05:34 16.1 °F 10.2 °F 30.02 in Calm     77% 0.00 in
05:39 16.2 °F 10.3 °F 30.02 in Calm   1.0 mph 77% 0.00 in
05:44 16.4 °F 10.2 °F 30.02 in Calm   3.0 mph 76% 0.00 in
05:49 16.6 °F 10.3 °F 30.02 in SSW 1.0 mph 4.0 mph 76% 0.00 in
05:54 16.8 °F 10.5 °F 30.02 in SW 1.0 mph 4.0 mph 76% 0.00 in
05:59 16.9 °F 10.6 °F 30.01 in Calm   2.0 mph 76% 0.00 in
06:04 16.8 °F 10.5 °F 30.01 in Calm     76% 0.00 in
06:09 16.8 °F 10.8 °F 30.01 in Calm     77% 0.00 in
06:14 16.7 °F 10.7 °F 30.01 in Calm     77% 0.00 in
06:19 16.6 °F 10.9 °F 30.01 in Calm     78% 0.00 in
06:24 16.7 °F 11.0 °F 30.02 in Calm     78% 0.00 in
06:29 16.8 °F 11.1 °F 30.02 in Calm     78% 0.00 in
06:39 16.9 °F 11.2 °F 30.01 in Calm     78% 0.00 in
06:44 17.0 °F 11.3 °F 30.01 in Calm     78% 0.00 in
06:49 17.1 °F 11.7 °F 30.01 in Calm     79% 0.00 in
06:54 17.3 °F 11.9 °F 30.01 in Calm     79% 0.00 in
06:59 17.4 °F 12.0 °F 30.01 in Calm     79% 0.00 in
07:04 17.5 °F 12.4 °F 30.01 in Calm     80% 0.00 in
07:09 17.5 °F 12.4 °F 30.01 in Calm     80% 0.00 in
07:14 17.7 °F 12.6 °F 30.01 in Calm   4.0 mph 80% 0.00 in
07:19 17.9 °F 12.8 °F 30.01 in SSE 2.0 mph 4.0 mph 80% 0.00 in
07:24 18.0 °F 12.9 °F 30.01 in South 2.0 mph 3.0 mph 80% 0.00 in
07:29 18.0 °F 12.9 °F 30.01 in South 2.0 mph 5.0 mph 80% 0.00 in
07:34 18.0 °F 13.2 °F 30.01 in South 2.0 mph 5.0 mph 81% 0.00 in
07:39 18.0 °F 13.2 °F 30.01 in South 1.0 mph 5.0 mph 81% 0.00 in
07:44 18.0 °F 13.2 °F 30.01 in Calm   5.0 mph 81% 0.00 in
07:49 18.0 °F 13.4 °F 30.01 in Calm   3.0 mph 82% 0.00 in
07:54 18.1 °F 13.5 °F 30.01 in Calm   2.0 mph 82% 0.00 in
07:59 18.0 °F 13.4 °F 30.01 in Calm   3.0 mph 82% 0.00 in
08:04 18.1 °F 13.8 °F 30.01 in Calm     83% 0.00 in
08:09 18.2 °F 13.9 °F 30.01 in Calm     83% 0.00 in
08:14 18.3 °F 14.0 °F 30.01 in Calm     83% 0.00 in
08:19 18.4 °F 14.1 °F 30.00 in Calm     83% 0.00 in
08:24 18.4 °F 14.4 °F 30.00 in Calm     84% 0.00 in
08:29 18.5 °F 14.5 °F 30.00 in Calm     84% 0.00 in
08:34 18.7 °F 14.7 °F 30.00 in Calm     84% 0.00 in
08:39 18.9 °F 14.9 °F 30.00 in Calm     84% 0.00 in
08:44 18.9 °F 15.1 °F 30.00 in Calm     85% 0.00 in
08:49 19.1 °F 15.3 °F 29.99 in Calm     85% 0.00 in
08:54 19.4 °F 15.6 °F 29.99 in Calm     85% 0.00 in
08:59 19.5 °F 15.7 °F 29.99 in SSE 2.0 mph 5.0 mph 85% 0.00 in
09:04 19.6 °F 15.8 °F 30.00 in SSE 2.0 mph 5.0 mph 85% 0.00 in
09:09 19.6 °F 15.8 °F 29.99 in South 3.0 mph 7.0 mph 85% 0.00 in
09:14 19.5 °F 15.7 °F 29.99 in South 3.0 mph 7.0 mph 85% 0.00 in
09:19 19.3 °F 15.5 °F 29.99 in SSW 3.0 mph 6.0 mph 85% 0.00 in
09:24 19.2 °F 15.2 °F 29.99 in South 2.0 mph 5.0 mph 84% 0.00 in
09:29 19.3 °F 15.3 °F 29.99 in South 1.0 mph 5.0 mph 84% 0.00 in
09:34 19.3 °F 15.3 °F 29.99 in South 3.0 mph 6.0 mph 84% 0.00 in
09:39 19.3 °F 15.3 °F 29.99 in South 3.0 mph 6.0 mph 84% 0.00 in
09:44 19.4 °F 15.4 °F 29.99 in Calm   4.0 mph 84% 0.00 in
09:49 19.5 °F 15.2 °F 29.99 in SSW 4.0 mph 4.0 mph 83% 0.00 in
09:54 19.6 °F 15.0 °F 29.99 in South 2.0 mph 4.0 mph 82% 0.00 in
09:59 19.8 °F 15.2 °F 29.98 in South 3.0 mph 6.0 mph 82% 0.00 in
10:04 20.0 °F 15.1 °F 29.98 in South 3.0 mph 7.0 mph 81% 0.00 in
10:09 20.2 °F 15.0 °F 29.98 in South 3.0 mph 7.0 mph 80% 0.00 in
10:14 20.3 °F 14.5 °F 29.98 in South 2.0 mph 6.0 mph 78% 0.00 in
10:19 20.6 °F 14.8 °F 29.98 in South 2.0 mph 4.0 mph 78% 0.00 in
10:24 20.8 °F 14.7 °F 29.98 in SSW 2.0 mph 5.0 mph 77% 0.00 in
10:29 21.1 °F 14.7 °F 29.97 in South 2.0 mph 5.0 mph 76% 0.00 in
10:34 21.5 °F 15.1 °F 29.97 in South 3.0 mph 7.0 mph 76% 0.00 in
10:39 22.0 °F 15.3 °F 29.97 in SSE 4.0 mph 6.0 mph 75% 0.00 in
10:44 22.4 °F 15.4 °F 29.97 in South 3.0 mph 10.0 mph 74% 0.00 in
10:49 22.5 °F 15.1 °F 29.96 in SSE 5.0 mph 8.0 mph 73% 0.00 in
10:54 22.8 °F 15.1 °F 29.96 in South 2.0 mph 9.0 mph 72% 0.00 in
10:59 23.0 °F 15.3 °F 29.95 in South 4.0 mph 9.0 mph 72% 0.00 in
11:04 23.2 °F 15.2 °F 29.95 in South 5.0 mph 11.0 mph 71% 0.00 in
11:09 23.3 °F 15.3 °F 29.94 in South 5.0 mph 11.0 mph 71% 0.00 in
11:14 23.4 °F 15.4 °F 29.94 in South 5.0 mph 8.0 mph 71% 0.00 in
11:19 23.5 °F 15.1 °F 29.93 in SSW 5.0 mph 8.0 mph 70% 0.00 in
11:24 23.6 °F 15.2 °F 29.93 in SSE 2.0 mph 11.0 mph 70% 0.00 in
11:29 23.8 °F 15.4 °F 29.92 in South 4.0 mph 7.0 mph 70% 0.00 in
11:34 23.8 °F 15.4 °F 29.92 in SSW 4.0 mph 9.0 mph 70% 0.00 in
11:39 23.8 °F 15.1 °F 29.92 in South 5.0 mph 10.0 mph 69% 0.00 in
11:44 23.8 °F 15.1 °F 29.92 in South 4.0 mph 11.0 mph 69% 0.00 in
11:49 23.8 °F 15.1 °F 29.91 in WSW 4.0 mph 13.0 mph 69% 0.00 in
11:54 24.0 °F 15.6 °F 29.91 in South 6.0 mph 10.0 mph 70% 0.00 in
11:59 24.2 °F 15.5 °F 29.91 in SSW 3.0 mph 13.0 mph 69% 0.00 in
12:04 24.2 °F 15.5 °F 29.90 in SW 5.0 mph 10.0 mph 69% 0.00 in
12:09 24.4 °F 15.7 °F 29.91 in SSW 5.0 mph 10.0 mph 69% 0.00 in
12:14 24.5 °F 15.8 °F 29.90 in SSW 5.0 mph 10.0 mph 69% 0.00 in
12:19 24.3 °F 15.3 °F 29.90 in SSW 6.0 mph 12.0 mph 68% 0.00 in
12:24 24.3 °F 15.6 °F 29.90 in SSW 6.0 mph 12.0 mph 69% 0.00 in
12:29 24.4 °F 15.7 °F 29.89 in SSW 5.0 mph 12.0 mph 69% 0.00 in
12:34 24.4 °F 15.7 °F 29.89 in South 5.0 mph 12.0 mph 69% 0.00 in
12:39 24.2 °F 15.5 °F 29.89 in South 6.0 mph 11.0 mph 69% 0.00 in
12:44 24.3 °F 15.6 °F 29.88 in SSW 6.0 mph 11.0 mph 69% 0.00 in
12:49 24.3 °F 15.6 °F 29.88 in SSW 8.0 mph 12.0 mph 69% 0.00 in
12:54 24.4 °F 15.3 °F 29.88 in SSW 7.0 mph 11.0 mph 68% 0.00 in
12:59 24.4 °F 15.7 °F 29.88 in South 7.0 mph 11.0 mph 69% 0.00 in
13:04 24.4 °F 15.3 °F 29.87 in South 4.0 mph 12.0 mph 68% 0.00 in
13:10 24.7 °F 16.0 °F 29.87 in SSW 5.0 mph 12.0 mph 69% 0.00 in
13:19 25.1 °F 15.7 °F 29.86 in SSW 5.0 mph 15.0 mph 67% 0.00 in
13:24 25.1 °F 15.7 °F 29.86 in SW 6.0 mph 11.0 mph 67% 0.00 in
13:29 25.0 °F 15.6 °F 29.86 in SSW 5.0 mph 11.0 mph 67% 0.00 in
13:34 25.0 °F 15.9 °F 29.86 in South 5.0 mph 9.0 mph 68% 0.00 in
13:39 25.0 °F 15.9 °F 29.85 in WSW 5.0 mph 10.0 mph 68% 0.00 in
13:44 25.0 °F 15.9 °F 29.85 in South 5.0 mph 12.0 mph 68% 0.00 in
13:49 25.1 °F 16.0 °F 29.85 in SSW 6.0 mph 9.0 mph 68% 0.00 in
13:54 25.2 °F 15.8 °F 29.85 in South 5.0 mph 14.0 mph 67% 0.00 in
13:59 25.1 °F 15.7 °F 29.85 in South 6.0 mph 14.0 mph 67% 0.00 in
14:04 25.1 °F 15.7 °F 29.84 in SSW 5.0 mph 11.0 mph 67% 0.00 in
14:09 25.2 °F 15.8 °F 29.84 in SSW 5.0 mph 10.0 mph 67% 0.00 in
14:14 25.2 °F 15.8 °F 29.84 in South 3.0 mph 11.0 mph 67% 0.00 in
14:19 25.1 °F 15.7 °F 29.84 in SE 6.0 mph 14.0 mph 67% 0.00 in
14:24 25.0 °F 15.6 °F 29.84 in South 5.0 mph 14.0 mph 67% 0.00 in
14:29 24.9 °F 15.5 °F 29.84 in South 5.0 mph 10.0 mph 67% 0.00 in
14:34 25.0 °F 15.6 °F 29.84 in South 5.0 mph 10.0 mph 67% 0.00 in
14:39 25.0 °F 15.6 °F 29.84 in South 4.0 mph 11.0 mph 67% 0.00 in
14:49 25.1 °F 15.7 °F 29.83 in SSW 6.0 mph 10.0 mph 67% 0.00 in
14:54 25.2 °F 15.8 °F 29.83 in South 4.0 mph 8.0 mph 67% 0.00 in
14:59 25.3 °F 15.5 °F 29.83 in South 5.0 mph 11.0 mph 66% 0.00 in
15:04 25.3 °F 15.5 °F 29.83 in South 6.0 mph 11.0 mph 66% 0.00 in
15:09 25.3 °F 15.5 °F 29.83 in South 6.0 mph 10.0 mph 66% 0.00 in
15:14 25.3 °F 15.5 °F 29.82 in SSW 3.0 mph 8.0 mph 66% 0.00 in
15:19 25.4 °F 16.0 °F 29.83 in South 4.0 mph 13.0 mph 67% 0.00 in
15:24 25.4 °F 15.6 °F 29.83 in SSW 6.0 mph 12.0 mph 66% 0.00 in
15:29 25.3 °F 15.9 °F 29.82 in South 9.0 mph 10.0 mph 67% 0.00 in
15:34 25.4 °F 16.0 °F 29.82 in SSW 6.0 mph 11.0 mph 67% 0.00 in
15:39 25.4 °F 16.0 °F 29.82 in South 4.0 mph 10.0 mph 67% 0.00 in
15:44 25.3 °F 15.9 °F 29.82 in SSW 1.0 mph 12.0 mph 67% 0.00 in
15:49 25.3 °F 16.2 °F 29.82 in SSE 3.0 mph 14.0 mph 68% 0.00 in
15:54 25.3 °F 16.2 °F 29.82 in South 6.0 mph 16.0 mph 68% 0.00 in
15:59 25.3 °F 16.5 °F 29.82 in SSW 5.0 mph 12.0 mph 69% 0.00 in
16:04 25.2 °F 16.5 °F 29.82 in South 3.0 mph 9.0 mph 69% 0.00 in
16:09 25.2 °F 16.8 °F 29.82 in SSW 5.0 mph 13.0 mph 70% 0.00 in
16:14 25.1 °F 17.0 °F 29.82 in SSW 6.0 mph 13.0 mph 71% 0.00 in
16:19 24.9 °F 17.1 °F 29.81 in SSW 6.0 mph 13.0 mph 72% 0.00 in
16:24 24.6 °F 17.5 °F 29.81 in SSW 7.0 mph 18.0 mph 74% 0.00 in
16:34 24.2 °F 17.4 °F 29.81 in South 6.0 mph 11.0 mph 75% 0.00 in
16:39 24.0 °F 17.5 °F 29.81 in SW 11.0 mph 13.0 mph 76% 0.00 in
16:44 23.8 °F 17.6 °F 29.81 in SSW 7.0 mph 13.0 mph 77% 0.00 in
16:49 23.7 °F 17.5 °F 29.81 in SSW 7.0 mph 14.0 mph 77% 0.00 in
16:54 23.5 °F 17.3 °F 29.80 in SSW 7.0 mph 16.0 mph 77% 0.00 in
16:59 23.3 °F 17.5 °F 29.80 in South 13.0 mph 15.0 mph 78% 0.00 in
17:04 23.2 °F 17.7 °F 29.80 in South 7.0 mph 13.0 mph 79% 0.00 in
17:09 23.1 °F 17.8 °F 29.80 in SSE 12.0 mph 12.0 mph 80% 0.00 in
17:14 23.0 °F 17.7 °F 29.80 in SSW 6.0 mph 14.0 mph 80% 0.00 in
17:19 22.9 °F 17.7 °F 29.80 in SSW 7.0 mph 14.0 mph 80% 0.00 in
17:24 22.9 °F 17.9 °F 29.79 in SW 5.0 mph 14.0 mph 81% 0.00 in
17:29 22.9 °F 17.9 °F 29.79 in SSW 4.0 mph 16.0 mph 81% 0.00 in
17:34 22.9 °F 17.9 °F 29.79 in SSE 3.0 mph 14.0 mph 81% 0.00 in
17:39 23.0 °F 18.0 °F 29.79 in South 6.0 mph 15.0 mph 81% 0.00 in
17:44 22.9 °F 17.9 °F 29.79 in SSW 7.0 mph 15.0 mph 81% 0.00 in
17:49 22.9 °F 18.2 °F 29.79 in SSW 7.0 mph 15.0 mph 82% 0.00 in
17:54 22.9 °F 18.2 °F 29.79 in SW 5.0 mph 16.0 mph 82% 0.00 in
17:59 22.9 °F 18.2 °F 29.79 in SSW 7.0 mph 16.0 mph 82% 0.00 in
18:04 22.9 °F 18.2 °F 29.79 in SSW 6.0 mph 15.0 mph 82% 0.00 in
18:09 22.9 °F 18.5 °F 29.80 in SSW 6.0 mph 13.0 mph 83% 0.00 in
18:14 22.8 °F 18.7 °F 29.80 in SW 11.0 mph 15.0 mph 84% 0.00 in
18:19 22.8 °F 19.0 °F 29.80 in SW 7.0 mph 18.0 mph 85% 0.00 in
18:24 22.8 °F 19.2 °F 29.80 in SW 7.0 mph 18.0 mph 86% 0.00 in
18:29 23.1 °F 19.5 °F 29.80 in SW 7.0 mph 18.0 mph 86% 0.00 in
18:34 23.4 °F 20.1 °F 29.80 in WSW 6.0 mph 12.0 mph 87% 0.00 in
18:39 23.8 °F 20.5 °F 29.80 in WSW 3.0 mph 11.0 mph 87% 0.00 in
18:44 24.0 °F 21.0 °F 29.80 in WSW 8.0 mph 9.0 mph 88% 0.00 in
18:49 24.1 °F 21.1 °F 29.81 in SSW 4.0 mph 11.0 mph 88% 0.00 in
18:54 24.3 °F 21.3 °F 29.81 in SW 5.0 mph 11.0 mph 88% 0.00 in
18:59 24.4 °F 21.4 °F 29.81 in SW 5.0 mph 12.0 mph 88% 0.00 in
19:04 24.3 °F 21.3 °F 29.81 in WSW 5.0 mph 12.0 mph 88% 0.00 in
19:09 24.3 °F 21.3 °F 29.81 in WSW 5.0 mph 12.0 mph 88% 0.00 in
19:14 24.2 °F 21.2 °F 29.80 in WSW 6.0 mph 12.0 mph 88% 0.00 in
19:19 24.3 °F 21.0 °F 29.81 in WSW 6.0 mph 20.0 mph 87% 0.00 in
19:24 24.3 °F 21.0 °F 29.81 in WSW 7.0 mph 20.0 mph 87% 0.00 in
19:29 24.5 °F 20.6 °F 29.81 in WSW 7.0 mph 18.0 mph 85% 0.00 in
19:34 24.6 °F 20.5 °F 29.82 in West 8.0 mph 18.0 mph 84% 0.00 in
19:39 24.7 °F 20.6 °F 29.82 in WSW 5.0 mph 17.0 mph 84% 0.00 in
19:44 24.7 °F 20.3 °F 29.82 in SW 6.0 mph 17.0 mph 83% 0.00 in
19:49 24.6 °F 19.9 °F 29.82 in WSW 5.0 mph 15.0 mph 82% 0.00 in
19:54 24.5 °F 19.8 °F 29.82 in WSW 5.0 mph 16.0 mph 82% 0.00 in
19:59 24.5 °F 19.8 °F 29.82 in West 7.0 mph 18.0 mph 82% 0.00 in
20:04 24.4 °F 19.4 °F 29.82 in West 8.0 mph 18.0 mph 81% 0.00 in
20:09 24.4 °F 19.4 °F 29.82 in West 8.0 mph 16.0 mph 81% 0.00 in
20:14 24.4 °F 19.4 °F 29.83 in West 7.0 mph 16.0 mph 81% 0.00 in
20:19 24.3 °F 19.3 °F 29.82 in SW 8.0 mph 15.0 mph 81% 0.00 in
20:24 24.3 °F 19.0 °F 29.83 in WSW 9.0 mph 15.0 mph 80% 0.00 in
20:29 24.3 °F 19.0 °F 29.83 in West 4.0 mph 11.0 mph 80% 0.00 in
20:34 24.3 °F 19.0 °F 29.83 in West 7.0 mph 15.0 mph 80% 0.00 in
20:39 24.3 °F 19.0 °F 29.83 in West 8.0 mph 15.0 mph 80% 0.00 in
20:44 24.3 °F 19.0 °F 29.83 in SW 12.0 mph 16.0 mph 80% 0.00 in
20:49 24.3 °F 19.0 °F 29.83 in WSW 6.0 mph 14.0 mph 80% 0.00 in
20:54 24.4 °F 18.8 °F 29.84 in West 15.0 mph 23.0 mph 79% 0.00 in
20:59 24.4 °F 18.8 °F 29.84 in West 9.0 mph 23.0 mph 79% 0.00 in
21:04 24.4 °F 18.8 °F 29.84 in WSW 8.0 mph 20.0 mph 79% 0.00 in
21:09 24.4 °F 18.5 °F 29.84 in WSW 9.0 mph 20.0 mph 78% 0.00 in
21:14 24.5 °F 18.3 °F 29.84 in West 9.0 mph 18.0 mph 77% 0.00 in
21:19 24.5 °F 18.0 °F 29.84 in SW 8.0 mph 16.0 mph 76% 0.00 in
21:24 24.6 °F 18.1 °F 29.84 in West 8.0 mph 15.0 mph 76% 0.00 in
21:29 24.6 °F 17.8 °F 29.84 in SW 6.0 mph 17.0 mph 75% 0.00 in
21:34 24.7 °F 17.6 °F 29.84 in West 8.0 mph 17.0 mph 74% 0.00 in
21:39 24.7 °F 17.6 °F 29.84 in WNW 8.0 mph 15.0 mph 74% 0.00 in
21:44 24.7 °F 17.3 °F 29.84 in WSW 9.0 mph 19.0 mph 73% 0.00 in
21:49 24.6 °F 16.9 °F 29.84 in West 8.0 mph 19.0 mph 72% 0.00 in
21:54 24.5 °F 16.4 °F 29.85 in West 8.0 mph 17.0 mph 71% 0.00 in
21:59 24.4 °F 16.0 °F 29.84 in NW 10.0 mph 20.0 mph 70% 0.00 in
22:04 24.1 °F 15.7 °F 29.84 in SW 5.0 mph 15.0 mph 70% 0.00 in
22:09 24.0 °F 15.6 °F 29.85 in SSW 12.0 mph 16.0 mph 70% 0.00 in
22:19 23.9 °F 15.5 °F 29.85 in West 8.0 mph 17.0 mph 70% 0.00 in
22:24 23.8 °F 15.4 °F 29.85 in West 8.0 mph 18.0 mph 70% 0.00 in
22:29 23.8 °F 15.1 °F 29.85 in WNW 7.0 mph 13.0 mph 69% 0.00 in
22:34 23.7 °F 15.0 °F 29.86 in WNW 6.0 mph 15.0 mph 69% 0.00 in
22:39 23.6 °F 14.9 °F 29.85 in WSW 5.0 mph 18.0 mph 69% 0.00 in
22:44 23.5 °F 14.8 °F 29.86 in West 10.0 mph 15.0 mph 69% 0.00 in
22:49 23.4 °F 14.4 °F 29.86 in West 7.0 mph 16.0 mph 68% 0.00 in
22:54 23.4 °F 14.4 °F 29.86 in West 7.0 mph 16.0 mph 68% 0.00 in
22:59 23.3 °F 14.3 °F 29.86 in West 7.0 mph 14.0 mph 68% 0.00 in
23:04 23.2 °F 13.9 °F 29.86 in West 7.0 mph 15.0 mph 67% 0.00 in
23:09 23.1 °F 14.1 °F 29.87 in West 7.0 mph 15.0 mph 68% 0.00 in
23:14 23.1 °F 13.8 °F 29.87 in West 7.0 mph 14.0 mph 67% 0.00 in
23:19 23.1 °F 13.8 °F 29.87 in West 6.0 mph 14.0 mph 67% 0.00 in
23:24 23.1 °F 13.8 °F 29.87 in WSW 3.0 mph 9.0 mph 67% 0.00 in
23:29 23.1 °F 13.8 °F 29.87 in SW 11.0 mph 13.0 mph 67% 0.00 in
23:34 23.3 °F 14.0 °F 29.88 in WSW 9.0 mph 17.0 mph 67% 0.00 in
23:39 23.4 °F 14.0 °F 29.88 in West 9.0 mph 17.0 mph 67% 0.00 in
23:44 23.3 °F 14.0 °F 29.88 in WSW 7.0 mph 14.0 mph 67% 0.00 in
23:49 23.1 °F 13.8 °F 29.88 in West 10.0 mph 17.0 mph 67% 0.00 in
23:54 23.0 °F 13.7 °F 29.88 in WSW 7.0 mph 12.0 mph 67% 0.00 in
23:59 22.8 °F 13.5 °F 29.88 in West 8.0 mph 14.0 mph 67% 0.00 in
Buffalo, New York, USA
Compliments of Weather Underground - 2.5 mb